sensor_id;sensor_type;location;lat;lon;timestamp;noise_LAeq;noise_LA_min;noise_LA_max;noise_LA01;noise_LA95
69620;Laerm;57654;51.434;5.984;2023-11-19T00:00:05;33.41;31.70;38.12;;
69620;Laerm;57654;51.434;5.984;2023-11-19T00:00:16;33.24;31.74;36.92;;
69620;Laerm;57654;51.434;5.984;2023-11-19T00:00:27;33.36;31.83;36.53;;
69620;Laerm;57654;51.434;5.984;2023-11-19T00:00:37;33.27;31.41;37.17;;
69620;Laerm;57654;51.434;5.984;2023-11-19T00:00:48;33.35;31.07;37.77;;
69620;Laerm;57654;51.434;5.984;2023-11-19T00:00:58;32.67;31.04;35.75;;
69620;Laerm;57654;51.434;5.984;2023-11-19T00:01:08;32.13;30.50;37.58;;
69620;Laerm;57654;51.434;5.984;2023-11-19T00:01:18;32.52;30.63;36.33;;
69620;Laerm;57654;51.434;5.984;2023-11-19T00:01:28;32.51;30.69;38.59;;
69620;Laerm;57654;51.434;5.984;2023-11-19T00:01:39;32.34;30.32;36.26;;
69620;Laerm;57654;51.434;5.984;2023-11-19T00:01:49;32.44;30.26;38.29;;
69620;Laerm;57654;51.434;5.984;2023-11-19T00:01:59;32.86;31.34;36.04;;
69620;Laerm;57654;51.434;5.984;2023-11-19T00:02:09;32.72;30.95;38.52;;
69620;Laerm;57654;51.434;5.984;2023-11-19T00:02:20;33.30;31.50;38.13;;
69620;Laerm;57654;51.434;5.984;2023-11-19T00:02:30;32.56;30.39;35.53;;
69620;Laerm;57654;51.434;5.984;2023-11-19T00:02:41;32.15;30.16;38.09;;
69620;Laerm;57654;51.434;5.984;2023-11-19T00:02:51;32.57;30.52;37.03;;
69620;Laerm;57654;51.434;5.984;2023-11-19T00:03:02;32.83;31.39;35.56;;
69620;Laerm;57654;51.434;5.984;2023-11-19T00:03:13;32.50;30.95;37.27;;
69620;Laerm;57654;51.434;5.984;2023-11-19T00:03:23;33.41;31.31;44.02;;
69620;Laerm;57654;51.434;5.984;2023-11-19T00:03:33;34.54;31.45;38.91;;
69620;Laerm;57654;51.434;5.984;2023-11-19T00:03:45;34.89;31.57;38.50;;
69620;Laerm;57654;51.434;5.984;2023-11-19T00:03:55;34.39;31.06;53.14;;
69620;Laerm;57654;51.434;5.984;2023-11-19T00:04:05;32.42;30.55;36.98;;
69620;Laerm;57654;51.434;5.984;2023-11-19T00:04:15;33.15;31.39;37.46;;
69620;Laerm;57654;51.434;5.984;2023-11-19T00:04:26;32.91;30.91;35.34;;
69620;Laerm;57654;51.434;5.984;2023-11-19T00:04:36;33.12;31.04;36.18;;
69620;Laerm;57654;51.434;5.984;2023-11-19T00:04:47;32.48;30.23;42.98;;
69620;Laerm;57654;51.434;5.984;2023-11-19T00:04:58;32.42;30.19;45.09;;
69620;Laerm;57654;51.434;5.984;2023-11-19T00:05:08;33.52;29.68;49.40;;
69620;Laerm;57654;51.434;5.984;2023-11-19T00:05:19;31.91;29.68;37.65;;
69620;Laerm;57654;51.434;5.984;2023-11-19T00:05:29;32.23;30.23;36.44;;
69620;Laerm;57654;51.434;5.984;2023-11-19T00:05:39;33.67;31.02;36.65;;
69620;Laerm;57654;51.434;5.984;2023-11-19T00:05:51;33.33;31.32;36.63;;
69620;Laerm;57654;51.434;5.984;2023-11-19T00:06:02;32.94;31.10;35.44;;
69620;Laerm;57654;51.434;5.984;2023-11-19T00:06:14;32.91;31.29;39.75;;
69620;Laerm;57654;51.434;5.984;2023-11-19T00:06:24;31.88;30.29;34.51;;
69620;Laerm;57654;51.434;5.984;2023-11-19T00:06:35;31.57;29.93;37.22;;
69620;Laerm;57654;51.434;5.984;2023-11-19T00:06:45;32.27;30.31;35.39;;
69620;Laerm;57654;51.434;5.984;2023-11-19T00:06:56;31.85;30.20;37.37;;
69620;Laerm;57654;51.434;5.984;2023-11-19T00:07:12;32.58;30.16;37.34;;
69620;Laerm;57654;51.434;5.984;2023-11-19T00:07:24;35.43;33.51;38.80;;
69620;Laerm;57654;51.434;5.984;2023-11-19T00:07:37;34.49;32.08;36.82;;
69620;Laerm;57654;51.434;5.984;2023-11-19T00:07:51;33.37;31.23;38.50;;
69620;Laerm;57654;51.434;5.984;2023-11-19T00:08:01;32.62;30.65;39.38;;
69620;Laerm;57654;51.434;5.984;2023-11-19T00:08:12;32.98;30.88;36.24;;
69620;Laerm;57654;51.434;5.984;2023-11-19T00:08:22;33.00;30.65;36.65;;
69620;Laerm;57654;51.434;5.984;2023-11-19T00:08:34;33.52;30.73;37.90;;
69620;Laerm;57654;51.434;5.984;2023-11-19T00:08:45;34.00;31.89;36.57;;
69620;Laerm;57654;51.434;5.984;2023-11-19T00:08:55;32.60;30.43;37.31;;
69620;Laerm;57654;51.434;5.984;2023-11-19T00:09:05;32.50;30.83;35.81;;
69620;Laerm;57654;51.434;5.984;2023-11-19T00:09:16;32.44;30.21;37.71;;
69620;Laerm;57654;51.434;5.984;2023-11-19T00:09:28;31.71;29.83;36.47;;
69620;Laerm;57654;51.434;5.984;2023-11-19T00:09:38;32.01;30.24;37.98;;
69620;Laerm;57654;51.434;5.984;2023-11-19T00:09:49;32.58;30.75;35.69;;
69620;Laerm;57654;51.434;5.984;2023-11-19T00:10:00;33.13;31.58;36.18;;
69620;Laerm;57654;51.434;5.984;2023-11-19T00:10:19;33.54;31.50;36.97;;
69620;Laerm;57654;51.434;5.984;2023-11-19T00:10:30;32.20;30.33;36.29;;
69620;Laerm;57654;51.434;5.984;2023-11-19T00:10:40;32.00;30.49;34.60;;
69620;Laerm;57654;51.434;5.984;2023-11-19T00:10:51;32.47;30.52;38.67;;
69620;Laerm;57654;51.434;5.984;2023-11-19T00:11:01;32.48;30.46;36.54;;
69620;Laerm;57654;51.434;5.984;2023-11-19T00:11:12;34.57;31.84;41.48;;
69620;Laerm;57654;51.434;5.984;2023-11-19T00:11:25;35.25;33.85;37.52;;
69620;Laerm;57654;51.434;5.984;2023-11-19T00:11:35;35.74;34.24;38.26;;
69620;Laerm;57654;51.434;5.984;2023-11-19T00:11:46;34.53;32.54;39.82;;
69620;Laerm;57654;51.434;5.984;2023-11-19T00:11:57;33.85;32.39;37.37;;
69620;Laerm;57654;51.434;5.984;2023-11-19T00:12:07;33.60;32.14;36.54;;
69620;Laerm;57654;51.434;5.984;2023-11-19T00:12:18;32.85;30.95;37.04;;
69620;Laerm;57654;51.434;5.984;2023-11-19T00:12:28;32.02;30.39;34.80;;
69620;Laerm;57654;51.434;5.984;2023-11-19T00:12:42;31.72;30.12;35.13;;
69620;Laerm;57654;51.434;5.984;2023-11-19T00:12:54;31.22;29.51;36.12;;
69620;Laerm;57654;51.434;5.984;2023-11-19T00:13:04;31.25;29.38;37.45;;
69620;Laerm;57654;51.434;5.984;2023-11-19T00:13:14;31.40;29.69;38.03;;
69620;Laerm;57654;51.434;5.984;2023-11-19T00:13:24;31.61;29.69;36.89;;
69620;Laerm;57654;51.434;5.984;2023-11-19T00:13:36;31.28;29.42;37.04;;
69620;Laerm;57654;51.434;5.984;2023-11-19T00:13:46;32.72;31.01;36.18;;
69620;Laerm;57654;51.434;5.984;2023-11-19T00:13:56;32.18;30.37;35.17;;
69620;Laerm;57654;51.434;5.984;2023-11-19T00:14:06;31.82;30.00;35.90;;
69620;Laerm;57654;51.434;5.984;2023-11-19T00:14:18;32.86;30.12;40.87;;
69620;Laerm;57654;51.434;5.984;2023-11-19T00:14:28;32.26;30.85;35.97;;
69620;Laerm;57654;51.434;5.984;2023-11-19T00:14:39;32.46;30.59;38.73;;
69620;Laerm;57654;51.434;5.984;2023-11-19T00:14:49;31.99;30.40;36.83;;
69620;Laerm;57654;51.434;5.984;2023-11-19T00:15:00;32.07;30.56;34.41;;
69620;Laerm;57654;51.434;5.984;2023-11-19T00:15:11;31.78;29.74;36.28;;
69620;Laerm;57654;51.434;5.984;2023-11-19T00:15:21;32.30;30.70;35.83;;
69620;Laerm;57654;51.434;5.984;2023-11-19T00:15:31;33.34;30.43;46.90;;
69620;Laerm;57654;51.434;5.984;2023-11-19T00:15:42;32.37;30.14;38.77;;
69620;Laerm;57654;51.434;5.984;2023-11-19T00:15:52;32.72;30.91;36.01;;
69620;Laerm;57654;51.434;5.984;2023-11-19T00:16:03;32.38;30.87;34.70;;
69620;Laerm;57654;51.434;5.984;2023-11-19T00:16:14;32.62;30.85;35.76;;
69620;Laerm;57654;51.434;5.984;2023-11-19T00:16:26;32.77;31.00;38.97;;
69620;Laerm;57654;51.434;5.984;2023-11-19T00:16:36;32.98;30.92;36.57;;
69620;Laerm;57654;51.434;5.984;2023-11-19T00:16:46;34.03;31.97;37.57;;
69620;Laerm;57654;51.434;5.984;2023-11-19T00:16:57;33.63;31.69;36.37;;
69620;Laerm;57654;51.434;5.984;2023-11-19T00:17:07;32.94;31.34;35.92;;
69620;Laerm;57654;51.434;5.984;2023-11-19T00:17:17;34.22;31.82;41.60;;
69620;Laerm;57654;51.434;5.984;2023-11-19T00:17:27;33.56;31.74;36.01;;
69620;Laerm;57654;51.434;5.984;2023-11-19T00:17:38;33.30;31.62;37.55;;
69620;Laerm;57654;51.434;5.984;2023-11-19T00:17:55;34.84;32.57;40.18;;
69620;Laerm;57654;51.434;5.984;2023-11-19T00:18:05;36.68;34.24;42.50;;
69620;Laerm;57654;51.434;5.984;2023-11-19T00:18:15;35.92;34.40;37.75;;
69620;Laerm;57654;51.434;5.984;2023-11-19T00:18:25;34.55;32.87;44.03;;
69620;Laerm;57654;51.434;5.984;2023-11-19T00:18:36;34.24;32.92;40.81;;
69620;Laerm;57654;51.434;5.984;2023-11-19T00:18:46;35.21;33.26;44.78;;
69620;Laerm;57654;51.434;5.984;2023-11-19T00:18:56;36.22;33.74;46.88;;
69620;Laerm;57654;51.434;5.984;2023-11-19T00:19:06;34.71;33.06;38.77;;
69620;Laerm;57654;51.434;5.984;2023-11-19T00:19:18;35.29;33.10;39.49;;
69620;Laerm;57654;51.434;5.984;2023-11-19T00:19:28;35.61;34.02;45.91;;
69620;Laerm;57654;51.434;5.984;2023-11-19T00:19:39;36.16;33.61;52.66;;
69620;Laerm;57654;51.434;5.984;2023-11-19T00:19:49;35.11;33.71;40.13;;
69620;Laerm;57654;51.434;5.984;2023-11-19T00:20:01;34.80;33.08;38.41;;
69620;Laerm;57654;51.434;5.984;2023-11-19T00:20:16;34.41;32.43;42.98;;
69620;Laerm;57654;51.434;5.984;2023-11-19T00:20:27;37.77;33.50;56.65;;
69620;Laerm;57654;51.434;5.984;2023-11-19T00:20:37;40.68;36.33;45.78;;
69620;Laerm;57654;51.434;5.984;2023-11-19T00:20:47;48.01;43.93;49.90;;
69620;Laerm;57654;51.434;5.984;2023-11-19T00:20:57;49.83;47.63;51.96;;
69620;Laerm;57654;51.434;5.984;2023-11-19T00:21:07;48.81;42.26;53.95;;
69620;Laerm;57654;51.434;5.984;2023-11-19T00:21:19;36.46;32.34;44.06;;
69620;Laerm;57654;51.434;5.984;2023-11-19T00:21:30;34.05;31.68;44.88;;
69620;Laerm;57654;51.434;5.984;2023-11-19T00:21:40;33.69;31.66;38.27;;
69620;Laerm;57654;51.434;5.984;2023-11-19T00:21:51;33.84;31.84;38.81;;
69620;Laerm;57654;51.434;5.984;2023-11-19T00:22:01;34.11;32.04;39.49;;
69620;Laerm;57654;51.434;5.984;2023-11-19T00:22:13;33.24;31.42;38.41;;
69620;Laerm;57654;51.434;5.984;2023-11-19T00:22:23;34.71;31.85;50.99;;
69620;Laerm;57654;51.434;5.984;2023-11-19T00:22:35;32.79;30.90;39.57;;
69620;Laerm;57654;51.434;5.984;2023-11-19T00:22:46;32.82;30.69;38.36;;
69620;Laerm;57654;51.434;5.984;2023-11-19T00:22:58;34.46;32.42;41.90;;
69620;Laerm;57654;51.434;5.984;2023-11-19T00:23:08;34.34;32.36;40.03;;
69620;Laerm;57654;51.434;5.984;2023-11-19T00:23:18;33.15;30.43;37.57;;
69620;Laerm;57654;51.434;5.984;2023-11-19T00:23:29;32.13;30.36;35.74;;
69620;Laerm;57654;51.434;5.984;2023-11-19T00:23:39;35.86;30.54;54.85;;
69620;Laerm;57654;51.434;5.984;2023-11-19T00:23:49;33.82;31.75;44.31;;
69620;Laerm;57654;51.434;5.984;2023-11-19T00:23:59;33.43;31.42;40.43;;
69620;Laerm;57654;51.434;5.984;2023-11-19T00:24:10;33.01;31.15;36.77;;
69620;Laerm;57654;51.434;5.984;2023-11-19T00:24:22;32.41;30.22;40.64;;
69620;Laerm;57654;51.434;5.984;2023-11-19T00:24:32;31.96;30.14;36.82;;
69620;Laerm;57654;51.434;5.984;2023-11-19T00:24:42;32.50;30.04;42.22;;
69620;Laerm;57654;51.434;5.984;2023-11-19T00:24:52;33.23;30.61;38.19;;
69620;Laerm;57654;51.434;5.984;2023-11-19T00:25:03;33.73;31.72;45.81;;
69620;Laerm;57654;51.434;5.984;2023-11-19T00:25:13;33.03;30.82;38.32;;
69620;Laerm;57654;51.434;5.984;2023-11-19T00:25:24;32.24;30.47;37.46;;
69620;Laerm;57654;51.434;5.984;2023-11-19T00:25:35;31.81;29.84;42.23;;
69620;Laerm;57654;51.434;5.984;2023-11-19T00:25:45;33.83;29.97;52.67;;
69620;Laerm;57654;51.434;5.984;2023-11-19T00:25:57;32.18;30.15;37.79;;
69620;Laerm;57654;51.434;5.984;2023-11-19T00:26:08;32.27;30.53;38.30;;
69620;Laerm;57654;51.434;5.984;2023-11-19T00:26:18;32.80;30.07;39.48;;
69620;Laerm;57654;51.434;5.984;2023-11-19T00:26:29;33.06;31.44;41.85;;
69620;Laerm;57654;51.434;5.984;2023-11-19T00:26:39;32.79;30.91;38.61;;
69620;Laerm;57654;51.434;5.984;2023-11-19T00:26:50;32.90;30.81;37.27;;
69620;Laerm;57654;51.434;5.984;2023-11-19T00:27:00;33.33;31.62;39.00;;
69620;Laerm;57654;51.434;5.984;2023-11-19T00:27:10;33.41;31.53;45.70;;
69620;Laerm;57654;51.434;5.984;2023-11-19T00:27:21;34.52;32.37;37.95;;
69620;Laerm;57654;51.434;5.984;2023-11-19T00:27:31;33.58;30.58;37.13;;
69620;Laerm;57654;51.434;5.984;2023-11-19T00:27:42;32.06;30.22;36.85;;
69620;Laerm;57654;51.434;5.984;2023-11-19T00:27:54;34.07;31.13;39.98;;
69620;Laerm;57654;51.434;5.984;2023-11-19T00:28:06;35.18;33.66;37.49;;
69620;Laerm;57654;51.434;5.984;2023-11-19T00:28:16;34.24;31.28;37.40;;
69620;Laerm;57654;51.434;5.984;2023-11-19T00:28:26;32.17;30.21;35.94;;
69620;Laerm;57654;51.434;5.984;2023-11-19T00:28:37;32.10;30.23;39.93;;
69620;Laerm;57654;51.434;5.984;2023-11-19T00:28:48;32.22;30.09;43.05;;
69620;Laerm;57654;51.434;5.984;2023-11-19T00:28:59;33.26;31.67;36.52;;
69620;Laerm;57654;51.434;5.984;2023-11-19T00:29:09;32.88;31.01;42.15;;
69620;Laerm;57654;51.434;5.984;2023-11-19T00:29:20;32.13;30.20;41.97;;
69620;Laerm;57654;51.434;5.984;2023-11-19T00:29:31;32.15;30.19;35.78;;
69620;Laerm;57654;51.434;5.984;2023-11-19T00:29:41;34.85;31.08;53.65;;
69620;Laerm;57654;51.434;5.984;2023-11-19T00:29:51;32.47;30.13;41.18;;
69620;Laerm;57654;51.434;5.984;2023-11-19T00:30:01;31.59;30.02;35.62;;
69620;Laerm;57654;51.434;5.984;2023-11-19T00:30:15;31.57;29.34;36.80;;
69620;Laerm;57654;51.434;5.984;2023-11-19T00:30:25;32.02;29.81;44.55;;
69620;Laerm;57654;51.434;5.984;2023-11-19T00:30:35;32.21;30.64;35.12;;
69620;Laerm;57654;51.434;5.984;2023-11-19T00:30:45;32.03;29.42;43.15;;
69620;Laerm;57654;51.434;5.984;2023-11-19T00:30:56;32.04;30.58;35.48;;
69620;Laerm;57654;51.434;5.984;2023-11-19T00:31:06;32.10;30.01;36.98;;
69620;Laerm;57654;51.434;5.984;2023-11-19T00:31:16;32.80;30.80;37.26;;
69620;Laerm;57654;51.434;5.984;2023-11-19T00:31:26;32.01;29.97;38.80;;
69620;Laerm;57654;51.434;5.984;2023-11-19T00:31:37;32.54;30.56;35.41;;
69620;Laerm;57654;51.434;5.984;2023-11-19T00:31:48;33.66;31.87;42.14;;
69620;Laerm;57654;51.434;5.984;2023-11-19T00:31:58;34.63;32.34;38.96;;
69620;Laerm;57654;51.434;5.984;2023-11-19T00:32:09;34.45;32.56;44.84;;
69620;Laerm;57654;51.434;5.984;2023-11-19T00:32:19;33.20;31.23;36.58;;
69620;Laerm;57654;51.434;5.984;2023-11-19T00:32:29;32.71;30.75;35.33;;
69620;Laerm;57654;51.434;5.984;2023-11-19T00:32:40;32.42;30.24;43.82;;
69620;Laerm;57654;51.434;5.984;2023-11-19T00:32:51;32.80;29.50;41.87;;
69620;Laerm;57654;51.434;5.984;2023-11-19T00:33:01;32.73;30.36;36.24;;
69620;Laerm;57654;51.434;5.984;2023-11-19T00:33:11;33.76;31.91;39.18;;
69620;Laerm;57654;51.434;5.984;2023-11-19T00:33:22;33.62;31.86;36.42;;
69620;Laerm;57654;51.434;5.984;2023-11-19T00:33:32;32.97;30.24;39.74;;
69620;Laerm;57654;51.434;5.984;2023-11-19T00:33:42;32.10;30.49;35.02;;
69620;Laerm;57654;51.434;5.984;2023-11-19T00:33:52;32.35;30.67;36.53;;
69620;Laerm;57654;51.434;5.984;2023-11-19T00:34:02;33.65;30.73;37.33;;
69620;Laerm;57654;51.434;5.984;2023-11-19T00:34:13;32.03;29.99;37.00;;
69620;Laerm;57654;51.434;5.984;2023-11-19T00:34:23;33.32;31.29;38.65;;
69620;Laerm;57654;51.434;5.984;2023-11-19T00:34:33;34.10;31.31;37.71;;
69620;Laerm;57654;51.434;5.984;2023-11-19T00:34:44;34.61;30.79;39.97;;
69620;Laerm;57654;51.434;5.984;2023-11-19T00:34:54;37.14;32.55;41.98;;
69620;Laerm;57654;51.434;5.984;2023-11-19T00:35:08;36.16;32.74;41.54;;
69620;Laerm;57654;51.434;5.984;2023-11-19T00:35:20;33.62;31.69;39.52;;
69620;Laerm;57654;51.434;5.984;2023-11-19T00:35:30;34.05;32.10;36.50;;
69620;Laerm;57654;51.434;5.984;2023-11-19T00:35:41;32.86;30.70;37.98;;
69620;Laerm;57654;51.434;5.984;2023-11-19T00:35:52;33.01;31.28;37.43;;
69620;Laerm;57654;51.434;5.984;2023-11-19T00:36:02;33.58;31.75;36.78;;
69620;Laerm;57654;51.434;5.984;2023-11-19T00:36:13;34.29;31.26;50.86;;
69620;Laerm;57654;51.434;5.984;2023-11-19T00:36:23;32.74;30.66;40.43;;
69620;Laerm;57654;51.434;5.984;2023-11-19T00:36:34;35.46;31.73;54.22;;
69620;Laerm;57654;51.434;5.984;2023-11-19T00:36:44;33.04;31.25;41.84;;
69620;Laerm;57654;51.434;5.984;2023-11-19T00:36:54;32.69;30.57;44.20;;
69620;Laerm;57654;51.434;5.984;2023-11-19T00:37:05;32.81;29.75;38.53;;
69620;Laerm;57654;51.434;5.984;2023-11-19T00:37:16;31.98;30.16;36.29;;
69620;Laerm;57654;51.434;5.984;2023-11-19T00:37:27;32.12;30.45;37.55;;
69620;Laerm;57654;51.434;5.984;2023-11-19T00:37:37;31.78;29.44;38.18;;
69620;Laerm;57654;51.434;5.984;2023-11-19T00:37:47;31.68;29.02;37.98;;
69620;Laerm;57654;51.434;5.984;2023-11-19T00:37:57;31.79;29.80;35.21;;
69620;Laerm;57654;51.434;5.984;2023-11-19T00:38:08;31.81;29.91;36.21;;
69620;Laerm;57654;51.434;5.984;2023-11-19T00:38:18;31.25;29.69;35.28;;
69620;Laerm;57654;51.434;5.984;2023-11-19T00:38:28;31.35;29.65;36.28;;
69620;Laerm;57654;51.434;5.984;2023-11-19T00:38:38;31.66;29.47;44.27;;
69620;Laerm;57654;51.434;5.984;2023-11-19T00:38:49;31.57;29.29;38.14;;
69620;Laerm;57654;51.434;5.984;2023-11-19T00:38:59;31.80;29.35;36.98;;
69620;Laerm;57654;51.434;5.984;2023-11-19T00:39:09;31.17;29.04;38.08;;
69620;Laerm;57654;51.434;5.984;2023-11-19T00:39:19;30.85;29.19;35.48;;
69620;Laerm;57654;51.434;5.984;2023-11-19T00:39:31;31.13;29.31;35.48;;
69620;Laerm;57654;51.434;5.984;2023-11-19T00:39:41;31.27;29.18;43.13;;
69620;Laerm;57654;51.434;5.984;2023-11-19T00:39:52;30.88;29.27;35.31;;
69620;Laerm;57654;51.434;5.984;2023-11-19T00:40:02;31.49;29.21;42.94;;
69620;Laerm;57654;51.434;5.984;2023-11-19T00:40:15;31.52;29.73;35.37;;
69620;Laerm;57654;51.434;5.984;2023-11-19T00:40:31;32.54;30.51;36.67;;
69620;Laerm;57654;51.434;5.984;2023-11-19T00:40:42;32.57;30.91;36.75;;
69620;Laerm;57654;51.434;5.984;2023-11-19T00:40:52;32.55;30.33;37.09;;
69620;Laerm;57654;51.434;5.984;2023-11-19T00:41:02;32.07;30.46;35.18;;
69620;Laerm;57654;51.434;5.984;2023-11-19T00:41:13;32.65;30.55;37.52;;
69620;Laerm;57654;51.434;5.984;2023-11-19T00:41:26;33.40;31.47;44.98;;
69620;Laerm;57654;51.434;5.984;2023-11-19T00:41:36;32.16;29.99;36.26;;
69620;Laerm;57654;51.434;5.984;2023-11-19T00:41:47;31.82;29.59;39.96;;
69620;Laerm;57654;51.434;5.984;2023-11-19T00:41:57;31.31;29.45;35.15;;
69620;Laerm;57654;51.434;5.984;2023-11-19T00:42:07;31.95;29.89;34.54;;
69620;Laerm;57654;51.434;5.984;2023-11-19T00:42:17;31.88;30.36;35.13;;
69620;Laerm;57654;51.434;5.984;2023-11-19T00:42:28;31.63;29.84;35.65;;
69620;Laerm;57654;51.434;5.984;2023-11-19T00:42:38;31.79;29.73;36.44;;
69620;Laerm;57654;51.434;5.984;2023-11-19T00:42:48;32.25;30.60;35.81;;
69620;Laerm;57654;51.434;5.984;2023-11-19T00:42:58;32.02;30.10;35.35;;
69620;Laerm;57654;51.434;5.984;2023-11-19T00:43:09;31.48;29.92;36.60;;
69620;Laerm;57654;51.434;5.984;2023-11-19T00:43:19;31.59;29.60;40.77;;
69620;Laerm;57654;51.434;5.984;2023-11-19T00:43:32;31.10;29.12;37.42;;
69620;Laerm;57654;51.434;5.984;2023-11-19T00:43:42;31.70;29.67;39.59;;
69620;Laerm;57654;51.434;5.984;2023-11-19T00:43:52;33.80;29.71;37.51;;
69620;Laerm;57654;51.434;5.984;2023-11-19T00:44:03;33.92;30.86;43.22;;
69620;Laerm;57654;51.434;5.984;2023-11-19T00:44:13;31.27;29.22;34.92;;
69620;Laerm;57654;51.434;5.984;2023-11-19T00:44:23;30.68;29.16;33.91;;
69620;Laerm;57654;51.434;5.984;2023-11-19T00:44:33;31.08;29.28;35.68;;
69620;Laerm;57654;51.434;5.984;2023-11-19T00:44:44;31.40;29.49;35.97;;
69620;Laerm;57654;51.434;5.984;2023-11-19T00:44:55;31.23;29.16;37.48;;
69620;Laerm;57654;51.434;5.984;2023-11-19T00:45:05;32.07;29.98;38.50;;
69620;Laerm;57654;51.434;5.984;2023-11-19T00:45:19;32.49;30.54;37.96;;
69620;Laerm;57654;51.434;5.984;2023-11-19T00:45:30;35.17;30.40;56.52;;
69620;Laerm;57654;51.434;5.984;2023-11-19T00:45:40;33.11;31.19;42.66;;
69620;Laerm;57654;51.434;5.984;2023-11-19T00:45:50;31.97;29.73;37.02;;
69620;Laerm;57654;51.434;5.984;2023-11-19T00:46:00;31.49;29.39;41.99;;
69620;Laerm;57654;51.434;5.984;2023-11-19T00:46:11;31.29;29.41;36.36;;
69620;Laerm;57654;51.434;5.984;2023-11-19T00:46:21;31.05;29.30;36.38;;
69620;Laerm;57654;51.434;5.984;2023-11-19T00:46:31;31.70;29.38;41.24;;
69620;Laerm;57654;51.434;5.984;2023-11-19T00:46:42;34.36;30.91;40.28;;
69620;Laerm;57654;51.434;5.984;2023-11-19T00:46:53;33.43;31.16;37.61;;
69620;Laerm;57654;51.434;5.984;2023-11-19T00:47:03;32.19;30.44;39.56;;
69620;Laerm;57654;51.434;5.984;2023-11-19T00:47:13;31.93;29.65;38.21;;
69620;Laerm;57654;51.434;5.984;2023-11-19T00:47:24;32.59;29.66;37.41;;
69620;Laerm;57654;51.434;5.984;2023-11-19T00:47:34;31.49;29.90;35.02;;
69620;Laerm;57654;51.434;5.984;2023-11-19T00:47:45;31.52;29.67;35.28;;
69620;Laerm;57654;51.434;5.984;2023-11-19T00:47:55;31.72;29.48;36.59;;
69620;Laerm;57654;51.434;5.984;2023-11-19T00:48:05;32.11;30.09;43.15;;
69620;Laerm;57654;51.434;5.984;2023-11-19T00:48:16;31.23;29.44;36.47;;
69620;Laerm;57654;51.434;5.984;2023-11-19T00:48:27;31.18;29.29;37.06;;
69620;Laerm;57654;51.434;5.984;2023-11-19T00:48:38;31.54;29.79;34.46;;
69620;Laerm;57654;51.434;5.984;2023-11-19T00:48:48;32.08;30.62;35.74;;
69620;Laerm;57654;51.434;5.984;2023-11-19T00:48:59;32.59;30.96;35.80;;
69620;Laerm;57654;51.434;5.984;2023-11-19T00:49:11;31.74;29.78;38.04;;
69620;Laerm;57654;51.434;5.984;2023-11-19T00:49:22;31.84;29.55;41.55;;
69620;Laerm;57654;51.434;5.984;2023-11-19T00:49:32;31.99;30.37;36.73;;
69620;Laerm;57654;51.434;5.984;2023-11-19T00:49:42;31.61;29.97;35.35;;
69620;Laerm;57654;51.434;5.984;2023-11-19T00:49:53;31.18;29.67;34.46;;
69620;Laerm;57654;51.434;5.984;2023-11-19T00:50:03;31.47;29.65;39.68;;
69620;Laerm;57654;51.434;5.984;2023-11-19T00:50:14;31.72;29.78;38.87;;
69620;Laerm;57654;51.434;5.984;2023-11-19T00:50:24;32.22;29.35;43.34;;
69620;Laerm;57654;51.434;5.984;2023-11-19T00:50:34;32.48;28.88;48.51;;
69620;Laerm;57654;51.434;5.984;2023-11-19T00:50:44;31.06;29.09;40.35;;
69620;Laerm;57654;51.434;5.984;2023-11-19T00:50:55;30.60;28.78;34.47;;
69620;Laerm;57654;51.434;5.984;2023-11-19T00:51:06;31.40;29.28;36.18;;
69620;Laerm;57654;51.434;5.984;2023-11-19T00:51:16;32.23;30.43;35.34;;
69620;Laerm;57654;51.434;5.984;2023-11-19T00:51:26;31.79;29.35;37.37;;
69620;Laerm;57654;51.434;5.984;2023-11-19T00:51:36;35.22;29.65;57.48;;
69620;Laerm;57654;51.434;5.984;2023-11-19T00:51:47;31.71;29.51;42.53;;
69620;Laerm;57654;51.434;5.984;2023-11-19T00:51:58;31.68;29.58;38.09;;
69620;Laerm;57654;51.434;5.984;2023-11-19T00:52:09;31.20;29.28;37.70;;
69620;Laerm;57654;51.434;5.984;2023-11-19T00:52:19;31.77;29.30;43.30;;
69620;Laerm;57654;51.434;5.984;2023-11-19T00:52:29;31.46;29.15;40.07;;
69620;Laerm;57654;51.434;5.984;2023-11-19T00:52:39;31.52;29.65;41.51;;
69620;Laerm;57654;51.434;5.984;2023-11-19T00:52:50;31.94;29.70;44.34;;
69620;Laerm;57654;51.434;5.984;2023-11-19T00:53:00;32.03;30.54;37.44;;
69620;Laerm;57654;51.434;5.984;2023-11-19T00:53:10;31.96;29.72;41.28;;
69620;Laerm;57654;51.434;5.984;2023-11-19T00:53:20;31.57;29.54;44.77;;
69620;Laerm;57654;51.434;5.984;2023-11-19T00:53:31;31.04;29.22;36.62;;
69620;Laerm;57654;51.434;5.984;2023-11-19T00:53:42;31.19;29.29;38.45;;
69620;Laerm;57654;51.434;5.984;2023-11-19T00:53:52;31.19;29.62;36.74;;
69620;Laerm;57654;51.434;5.984;2023-11-19T00:54:05;31.33;29.32;38.71;;
69620;Laerm;57654;51.434;5.984;2023-11-19T00:54:15;31.97;29.77;37.17;;
69620;Laerm;57654;51.434;5.984;2023-11-19T00:54:26;31.54;29.68;37.04;;
69620;Laerm;57654;51.434;5.984;2023-11-19T00:54:36;31.53;29.32;40.05;;
69620;Laerm;57654;51.434;5.984;2023-11-19T00:54:46;32.59;28.94;49.62;;
69620;Laerm;57654;51.434;5.984;2023-11-19T00:54:56;31.42;29.33;35.72;;
69620;Laerm;57654;51.434;5.984;2023-11-19T00:55:07;33.35;29.62;51.27;;
69620;Laerm;57654;51.434;5.984;2023-11-19T00:55:17;31.61;29.33;38.47;;
69620;Laerm;57654;51.434;5.984;2023-11-19T00:55:27;31.80;29.68;36.70;;
69620;Laerm;57654;51.434;5.984;2023-11-19T00:55:38;32.10;29.94;35.67;;
69620;Laerm;57654;51.434;5.984;2023-11-19T00:55:48;32.23;30.04;40.41;;
69620;Laerm;57654;51.434;5.984;2023-11-19T00:55:58;32.19;30.05;41.54;;
69620;Laerm;57654;51.434;5.984;2023-11-19T00:56:10;31.93;30.03;35.79;;
69620;Laerm;57654;51.434;5.984;2023-11-19T00:56:22;31.73;29.86;35.60;;
69620;Laerm;57654;51.434;5.984;2023-11-19T00:56:33;31.65;29.22;35.73;;
69620;Laerm;57654;51.434;5.984;2023-11-19T00:56:43;31.48;29.55;36.06;;
69620;Laerm;57654;51.434;5.984;2023-11-19T00:56:54;33.81;30.16;37.43;;
69620;Laerm;57654;51.434;5.984;2023-11-19T00:57:05;41.57;33.85;48.42;;
69620;Laerm;57654;51.434;5.984;2023-11-19T00:57:15;50.68;45.75;54.85;;
69620;Laerm;57654;51.434;5.984;2023-11-19T00:57:26;51.67;46.70;54.10;;
69620;Laerm;57654;51.434;5.984;2023-11-19T00:57:36;41.48;31.68;48.42;;
69620;Laerm;57654;51.434;5.984;2023-11-19T00:57:47;32.45;30.38;37.36;;
69620;Laerm;57654;51.434;5.984;2023-11-19T00:57:57;31.46;29.90;35.19;;
69620;Laerm;57654;51.434;5.984;2023-11-19T00:58:08;31.91;29.94;45.47;;
69620;Laerm;57654;51.434;5.984;2023-11-19T00:58:18;32.13;30.24;35.52;;
69620;Laerm;57654;51.434;5.984;2023-11-19T00:58:28;32.14;29.89;36.70;;
69620;Laerm;57654;51.434;5.984;2023-11-19T00:58:39;33.11;30.62;39.42;;
69620;Laerm;57654;51.434;5.984;2023-11-19T00:58:49;34.25;32.07;40.79;;
69620;Laerm;57654;51.434;5.984;2023-11-19T00:58:59;35.49;31.32;40.44;;
69620;Laerm;57654;51.434;5.984;2023-11-19T00:59:10;37.78;32.69;41.25;;
69620;Laerm;57654;51.434;5.984;2023-11-19T00:59:20;34.82;31.00;39.69;;
69620;Laerm;57654;51.434;5.984;2023-11-19T00:59:31;32.09;29.05;36.87;;
69620;Laerm;57654;51.434;5.984;2023-11-19T00:59:42;32.15;29.47;35.82;;
69620;Laerm;57654;51.434;5.984;2023-11-19T00:59:53;31.99;29.69;38.68;;